Josephine Anne — WDD9858 — position and weather

sailwx.info

Track history (hours):
 
Tides and Currents Weather Stations Pressure Air Temp Water Temp Dewpoint Dewpoint Depression Visibility Wind Speed Wind Dir Waves Ship Positions

Josephine Anne

Owner: E.N. Bisso & Son, Inc., Metairie, LA. More information available from US FCC via Universal Licensing System and Coast Guard Vessel Documentation Center.

Last reported at 2014-Dec-17 09:33 UTC. Time now 2014-Dec-18 12:27 UTC.
Position N 29°57' W 089°60'.

Length 29 m; draft 4.3 m.

Type: Tug. MMSI: 367317270.

Date/timePositionNaut miles runAvg speedWind from/ knotsBaromVisibWave heightAir tempDewpointWater temp
2014-Dec-17 09:33N 29°57' W 089°60'0 0.4
2014-Dec-17 08:24N 29°56' W 089°60'0 0.0
2014-Dec-17 07:08N 29°56' W 089°60'0 0.1
2014-Dec-17 03:22N 29°56' W 089°60'0 0.4
2014-Dec-17 02:30N 29°57' W 089°60'6 1.9
2014-Dec-16 23:29N 29°55' W 090°06'1 1.1
2014-Dec-16 22:32N 29°55' W 090°05'9 0.2
2014-Dec-15 07:07N 29°55' W 089°55'2 2.8
2014-Dec-15 06:31N 29°55' W 089°57'0 0.0
2014-Dec-15 05:13N 29°55' W 089°57'0 0.0
2014-Dec-15 04:26N 29°55' W 089°57'0 0.0
2014-Dec-15 03:28N 29°55' W 089°57'10 0.5
2014-Dec-14 08:17N 29°56' W 090°08'1 0.5
2014-Dec-14 06:28N 29°56' W 090°08'1 1.0
2014-Dec-14 05:03N 29°55' W 090°07'1 1.7
2014-Dec-14 04:33N 29°55' W 090°06'0 0.0
2014-Dec-14 03:33N 29°55' W 090°06'0 0.0
2014-Dec-14 02:32N 29°55' W 090°06'0 0.0
2014-Dec-14 01:29N 29°55' W 090°06'0 0.0
2014-Dec-14 00:33N 29°55' W 090°06'0 0.0
2014-Dec-13 23:26N 29°55' W 090°06'6 5.9
2014-Dec-13 22:26N 29°56' W 089°59'1 0.1
2014-Dec-13 13:09N 29°57' W 090°00'1 1.2
2014-Dec-13 12:29N 29°57' W 090°01'0 0.0
2014-Dec-13 11:32N 29°57' W 090°01'4 3.6
2014-Dec-13 10:33N 29°55' W 089°57'3 1.3
2014-Dec-13 08:11N 29°54' W 089°54'0 0.0
2014-Dec-13 07:32N 29°54' W 089°54'0 0.0
2014-Dec-13 06:30N 29°54' W 089°54'4 4.0
2014-Dec-13 05:31N 29°56' W 089°58'6 6.3
2014-Dec-13 04:32N 29°55' W 090°05'0 0.0
2014-Dec-13 03:33N 29°55' W 090°05'0 0.0
2014-Dec-13 02:33N 29°55' W 090°05'1 1.0
2014-Dec-13 01:28N 29°55' W 090°06'1 1.3
2014-Dec-13 00:31N 29°55' W 090°05'0 0.0
2014-Dec-12 23:26N 29°55' W 090°05'0 0.0
2014-Dec-12 22:13N 29°55' W 090°05'3 0.2
2014-Dec-12 09:26N 29°55' W 090°08'1 0.2
2014-Dec-12 06:22N 29°56' W 090°08'1 0.1
2014-Dec-11 13:07N 29°55' W 090°07'9 4.5
2014-Dec-11 11:15N 29°58' W 090°16'0 0.0
2014-Dec-11 10:27N 29°58' W 090°16'6 5.5
2014-Dec-11 09:25N 29°57' W 090°10'6 0.3
2014-Dec-10 14:31N 29°57' W 090°03'2 2.0
2014-Dec-10 13:32N 29°57' W 090°01'0 0.0
2014-Dec-10 12:30N 29°57' W 090°01'0 0.0
2014-Dec-10 11:33N 29°57' W 090°01'0 0.0
2014-Dec-10 10:33N 29°57' W 090°01'0 0.0
2014-Dec-10 09:33N 29°57' W 090°01'0 0.0
2014-Dec-10 08:33N 29°57' W 090°01'0 0.0
2014-Dec-10 07:33N 29°57' W 090°01'0 0.0
2014-Dec-10 06:33N 29°57' W 090°01'0 0.0
2014-Dec-10 05:33N 29°57' W 090°01'0 0.0
2014-Dec-10 04:33N 29°57' W 090°01'11 0.6
2014-Dec-09 09:19N 29°57' W 090°13'3 1.4
2014-Dec-09 07:09N 29°58' W 090°16'7 2.8
2014-Dec-09 04:31N 29°55' W 090°08'7 1.7
2014-Dec-09 00:07N 29°56' W 089°60'1 2.6
2014-Dec-08 23:33N 29°57' W 090°01'0 0.0
2014-Dec-08 22:32N 29°57' W 090°01'0 0.0
2014-Dec-08 21:33N 29°57' W 090°01'0 0.0
2014-Dec-08 20:33N 29°57' W 090°01'0 0.0
2014-Dec-08 19:30N 29°57' W 090°01'0 0.0
2014-Dec-08 18:31N 29°57' W 090°01'0 0.0
2014-Dec-08 17:30N 29°57' W 090°01'0 0.0
2014-Dec-08 16:32N 29°57' W 090°01'0 0.0
2014-Dec-07 22:19N 29°57' W 090°01'0 0.0
2014-Dec-07 21:27N 29°57' W 090°01'0 0.0
2014-Dec-07 20:33N 29°57' W 090°01'7 6.0
2014-Dec-07 19:26N 29°55' W 090°09'0 0.1
2014-Dec-07 13:12N 29°55' W 090°08'3 5.0
2014-Dec-07 12:31N 29°55' W 090°04'8 5.8
2014-Dec-07 11:04N 29°54' W 089°55'4 5.1
2014-Dec-07 10:15N 29°56' W 089°59'  
Track history (hours):
 
Tides and Currents Weather Stations Pressure Air Temp Water Temp Dewpoint Dewpoint Depression Visibility Wind Speed Wind Dir Waves Ship Positions

Josephine Anne

Owner: E.N. Bisso & Son, Inc., Metairie, LA. More information available from US FCC via Universal Licensing System and Coast Guard Vessel Documentation Center.

Last reported at 2014-Dec-17 09:33 UTC. Time now 2014-Dec-18 12:27 UTC.
Position N 29°57' W 089°60'.

Length 29 m; draft 4.3 m.

Type: Tug. MMSI: 367317270.

Date/timePositionNaut miles runAvg speedWind from/ knotsBaromVisibWave heightAir tempDewpointWater temp
2014-Dec-17 09:33N 29°57' W 089°60'0 0.4
2014-Dec-17 08:24N 29°56' W 089°60'0 0.0
2014-Dec-17 07:08N 29°56' W 089°60'0 0.1
2014-Dec-17 03:22N 29°56' W 089°60'0 0.4
2014-Dec-17 02:30N 29°57' W 089°60'6 1.9
2014-Dec-16 23:29N 29°55' W 090°06'1 1.1
2014-Dec-16 22:32N 29°55' W 090°05'9 0.2
2014-Dec-15 07:07N 29°55' W 089°55'2 2.8
2014-Dec-15 06:31N 29°55' W 089°57'0 0.0
2014-Dec-15 05:13N 29°55' W 089°57'0 0.0
2014-Dec-15 04:26N 29°55' W 089°57'0 0.0
2014-Dec-15 03:28N 29°55' W 089°57'10 0.5
2014-Dec-14 08:17N 29°56' W 090°08'1 0.5
2014-Dec-14 06:28N 29°56' W 090°08'1 1.0
2014-Dec-14 05:03N 29°55' W 090°07'1 1.7
2014-Dec-14 04:33N 29°55' W 090°06'0 0.0
2014-Dec-14 03:33N 29°55' W 090°06'0 0.0
2014-Dec-14 02:32N 29°55' W 090°06'0 0.0
2014-Dec-14 01:29N 29°55' W 090°06'0 0.0
2014-Dec-14 00:33N 29°55' W 090°06'0 0.0
2014-Dec-13 23:26N 29°55' W 090°06'6 5.9
2014-Dec-13 22:26N 29°56' W 089°59'1 0.1
2014-Dec-13 13:09N 29°57' W 090°00'1 1.2
2014-Dec-13 12:29N 29°57' W 090°01'0 0.0
2014-Dec-13 11:32N 29°57' W 090°01'4 3.6
2014-Dec-13 10:33N 29°55' W 089°57'3 1.3
2014-Dec-13 08:11N 29°54' W 089°54'0 0.0
2014-Dec-13 07:32N 29°54' W 089°54'0 0.0
2014-Dec-13 06:30N 29°54' W 089°54'4 4.0
2014-Dec-13 05:31N 29°56' W 089°58'6 6.3
2014-Dec-13 04:32N 29°55' W 090°05'0 0.0
2014-Dec-13 03:33N 29°55' W 090°05'0 0.0
2014-Dec-13 02:33N 29°55' W 090°05'1 1.0
2014-Dec-13 01:28N 29°55' W 090°06'1 1.3
2014-Dec-13 00:31N 29°55' W 090°05'0 0.0
2014-Dec-12 23:26N 29°55' W 090°05'0 0.0
2014-Dec-12 22:13N 29°55' W 090°05'3 0.2
2014-Dec-12 09:26N 29°55' W 090°08'1 0.2
2014-Dec-12 06:22N 29°56' W 090°08'1 0.1
2014-Dec-11 13:07N 29°55' W 090°07'9 4.5
2014-Dec-11 11:15N 29°58' W 090°16'0 0.0
2014-Dec-11 10:27N 29°58' W 090°16'6 5.5
2014-Dec-11 09:25N 29°57' W 090°10'6 0.3
2014-Dec-10 14:31N 29°57' W 090°03'2 2.0
2014-Dec-10 13:32N 29°57' W 090°01'0 0.0
2014-Dec-10 12:30N 29°57' W 090°01'0 0.0
2014-Dec-10 11:33N 29°57' W 090°01'0 0.0
2014-Dec-10 10:33N 29°57' W 090°01'0 0.0
2014-Dec-10 09:33N 29°57' W 090°01'0 0.0
2014-Dec-10 08:33N 29°57' W 090°01'0 0.0
2014-Dec-10 07:33N 29°57' W 090°01'0 0.0
2014-Dec-10 06:33N 29°57' W 090°01'0 0.0
2014-Dec-10 05:33N 29°57' W 090°01'0 0.0
2014-Dec-10 04:33N 29°57' W 090°01'11 0.6
2014-Dec-09 09:19N 29°57' W 090°13'3 1.4
2014-Dec-09 07:09N 29°58' W 090°16'7 2.8
2014-Dec-09 04:31N 29°55' W 090°08'7 1.7
2014-Dec-09 00:07N 29°56' W 089°60'1 2.6
2014-Dec-08 23:33N 29°57' W 090°01'0 0.0
2014-Dec-08 22:32N 29°57' W 090°01'0 0.0
2014-Dec-08 21:33N 29°57' W 090°01'0 0.0
2014-Dec-08 20:33N 29°57' W 090°01'0 0.0
2014-Dec-08 19:30N 29°57' W 090°01'0 0.0
2014-Dec-08 18:31N 29°57' W 090°01'0 0.0
2014-Dec-08 17:30N 29°57' W 090°01'0 0.0
2014-Dec-08 16:32N 29°57' W 090°01'0 0.0
2014-Dec-07 22:19N 29°57' W 090°01'0 0.0
2014-Dec-07 21:27N 29°57' W 090°01'0 0.0
2014-Dec-07 20:33N 29°57' W 090°01'7 6.0
2014-Dec-07 19:26N 29°55' W 090°09'0 0.1
2014-Dec-07 13:12N 29°55' W 090°08'3 5.0
2014-Dec-07 12:31N 29°55' W 090°04'8 5.8
2014-Dec-07 11:04N 29°54' W 089°55'4 5.1
2014-Dec-07 10:15N 29°56' W 089°59'  

Dump ship's entire track history